Time;durP1;ratioP1;P1;durP2;ratioP2;P2;SDS_P1;SDS_P2;PMS_P1;PMS_P2;Temp;Humidity;BMP_temperature;BMP_pressure;BME280_temperature;BME280_humidity;BME280_pressure;Samples;Min_cycle;Max_cycle;Signal;HPM_P1;HPM_P2
2022/09/30 00:00:51;;;;;;;;;21.75;19.25;;;;;10.88;69.80;100640.56;5058875;28;45918;-87
2022/09/30 00:03:16;;;;;;;;;27.00;23.50;;;;;10.87;69.49;100636.28;5077300;27;45356;-87
2022/09/30 00:05:41;;;;;;;;;28.25;21.00;;;;;10.85;69.43;100630.28;5058434;28;60693;-87
2022/09/30 00:08:07;;;;;;;;;23.50;22.25;;;;;10.85;69.70;100632.88;5058307;28;63036;-87
2022/09/30 00:10:32;;;;;;;;;22.25;20.00;;;;;10.80;69.20;100627.78;5058347;28;51335;-87
2022/09/30 00:12:57;;;;;;;;;25.75;20.75;;;;;10.80;69.60;100630.41;5058143;28;59298;-87
2022/09/30 00:15:23;;;;;;;;;23.00;16.75;;;;;10.79;69.87;100623.50;5058723;28;46886;-87
2022/09/30 00:17:48;;;;;;;;;25.00;20.00;;;;;10.78;69.46;100632.19;5057985;28;68717;-87
2022/09/30 00:20:14;;;;;;;;;21.00;18.25;;;;;10.79;69.43;100625.22;5076795;27;45431;-87
2022/09/30 00:22:39;;;;;;;;;19.75;17.75;;;;;10.78;69.31;100636.56;5077004;28;45423;-87
2022/09/30 00:25:05;;;;;;;;;25.00;19.00;;;;;10.75;69.16;100634.88;5057394;28;69025;-87
2022/09/30 00:27:30;;;;;;;;;21.00;18.00;;;;;10.74;69.45;100635.81;5076469;28;45960;-87
2022/09/30 00:29:55;;;;;;;;;25.00;19.25;;;;;10.75;69.94;100628.84;5075618;28;71295;-87
2022/09/30 00:32:21;;;;;;;;;24.00;19.75;;;;;10.74;69.31;100632.38;5058156;28;54126;-87
2022/09/30 00:34:46;;;;;;;;;18.75;16.00;;;;;10.72;69.21;100627.19;5076087;28;58419;-87
2022/09/30 00:37:14;;;;;;;;;20.25;16.25;;;;;10.73;69.58;100628.03;5076396;28;47215;-87
2022/09/30 00:39:39;;;;;;;;;27.00;16.25;;;;;10.72;69.50;100634.16;5076271;28;45307;-87
2022/09/30 00:42:10;;;;;;;;;15.75;15.25;;;;;10.68;69.71;100638.63;5075510;28;45428;-87
2022/09/30 00:44:50;;;;;;;;;24.75;17.00;;;;;10.69;69.54;100635.09;5058287;28;45356;-86
2022/09/30 00:47:27;;;;;;;;;22.25;19.25;;;;;10.67;69.79;100642.09;5075155;27;47003;-87
2022/09/30 00:49:54;;;;;;;;;22.00;19.75;;;;;10.62;70.10;100649.19;5075170;28;45468;-86
2022/09/30 00:52:20;;;;;;;;;19.00;16.00;;;;;10.58;69.89;100638.03;5076476;27;45314;-87
2022/09/30 00:54:45;;;;;;;;;23.00;16.00;;;;;10.59;69.84;100647.53;5057218;27;52832;-87
2022/09/30 00:57:11;;;;;;;;;19.00;16.25;;;;;10.57;69.58;100641.53;5057363;28;45407;-87
2022/09/30 00:59:40;;;;;;;;;21.00;17.00;;;;;10.56;69.88;100647.63;5057353;28;62220;-87
2022/09/30 01:02:06;;;;;;;;;21.00;16.75;;;;;10.54;70.20;100651.19;5058030;28;45305;-87
2022/09/30 01:04:33;;;;;;;;;16.25;15.75;;;;;10.53;69.73;100652.06;5041022;28;52216;-87
2022/09/30 01:07:01;;;;;;;;;15.25;14.00;;;;;10.53;69.50;100652.94;5040415;28;72417;-87
2022/09/30 01:09:26;;;;;;;;;18.00;16.00;;;;;10.50;70.09;100645.22;5057694;28;45801;-87
2022/09/30 01:11:52;;;;;;;;;25.25;16.75;;;;;10.46;69.88;100643.63;5075478;28;62201;-87
2022/09/30 01:14:21;;;;;;;;;19.25;14.00;;;;;10.47;69.71;100647.91;5057104;28;70766;-86
2022/09/30 01:16:59;;;;;;;;;19.00;15.00;;;;;10.49;69.90;100648.72;5057749;28;47718;-87
2022/09/30 01:19:36;;;;;;;;;18.50;14.50;;;;;10.46;69.68;100641.84;5057704;28;45874;-87
2022/09/30 01:22:24;;;;;;;;;14.50;14.25;;;;;10.43;69.40;100643.69;5076265;28;45356;-87
2022/09/30 01:25:14;;;;;;;;;16.50;14.25;;;;;10.40;69.71;100646.38;5057675;28;45489;-87
2022/09/30 01:28:13;;;;;;;;;19.00;15.75;;;;;10.35;69.83;100640.47;5075746;27;45687;-87
2022/09/30 01:30:58;;;;;;;;;19.25;14.00;;;;;10.31;69.75;100644.91;5076003;28;45875;-87
2022/09/30 01:33:30;;;;;;;;;14.50;12.00;;;;;10.30;69.72;100645.78;5057646;28;45428;-87
2022/09/30 01:35:59;;;;;;;;;23.00;15.75;;;;;10.30;70.26;100650.13;5057654;28;45281;-87
2022/09/30 01:38:59;;;;;;;;;13.25;12.00;;;;;10.27;69.87;100645.88;5075289;27;46354;-87
2022/09/30 01:41:25;;;;;;;;;25.50;16.25;;;;;10.24;69.95;100646.81;5057619;28;45360;-87
2022/09/30 01:44:12;;;;;;;;;20.50;14.50;;;;;10.22;70.13;100645.16;5057741;28;45323;-86
2022/09/30 01:47:01;;;;;;;;;14.50;13.25;;;;;10.18;70.37;100654.78;5057738;28;45308;-86
2022/09/30 01:49:38;;;;;;;;;17.75;16.75;;;;;10.16;70.19;100659.19;5057422;28;46227;-87
2022/09/30 01:52:12;;;;;;;;;19.00;13.75;;;;;10.12;70.36;100661.91;5057134;28;45941;-87
2022/09/30 01:54:55;;;;;;;;;17.75;14.00;;;;;10.11;70.61;100668.03;5057463;28;45338;-87
2022/09/30 01:57:47;;;;;;;;;13.00;11.00;;;;;10.10;70.95;100666.31;5057495;28;45289;-86
2022/09/30 02:00:14;;;;;;;;;17.00;14.00;;;;;10.07;70.39;100660.28;4992622;28;46480;-87
2022/09/30 02:02:58;;;;;;;;;17.25;14.25;;;;;10.04;70.79;100651.72;4976967;28;45481;-86
2022/09/30 02:05:32;;;;;;;;;14.75;14.00;;;;;10.01;70.79;100654.41;4976876;28;45452;-87
2022/09/30 02:08:00;;;;;;;;;16.25;13.00;;;;;10.02;71.01;100648.31;4976462;28;45388;-86
2022/09/30 02:10:29;;;;;;;;;22.75;15.50;;;;;10.02;70.62;100651.75;4979881;28;47038;-86
2022/09/30 02:13:08;;;;;;;;;18.50;17.00;;;;;10.02;70.98;100653.53;4996334;28;45471;-87
2022/09/30 02:15:36;;;;;;;;;19.75;12.75;;;;;9.99;70.40;100644.06;4979967;28;45652;-86
2022/09/30 02:18:08;;;;;;;;;15.75;11.00;;;;;9.98;70.70;100649.31;4979924;28;45354;-87
2022/09/30 02:20:37;;;;;;;;;19.50;14.50;;;;;9.95;70.70;100642.41;4995858;28;46533;-87
2022/09/30 02:23:14;;;;;;;;;16.00;16.00;;;;;9.91;70.75;100640.81;4980017;28;45856;-87
2022/09/30 02:26:07;;;;;;;;;15.50;14.25;;;;;9.89;70.88;100648.66;4979790;28;45482;-87
2022/09/30 02:28:37;;;;;;;;;14.50;13.75;;;;;9.86;70.81;100647.88;4994837;28;45378;-87
2022/09/30 02:31:03;;;;;;;;;21.00;13.50;;;;;9.85;70.84;100646.19;4996038;28;46365;-87
2022/09/30 02:33:40;;;;;;;;;17.50;13.75;;;;;9.83;70.65;100643.63;4970393;28;71516;-87
2022/09/30 02:36:16;;;;;;;;;17.00;15.00;;;;;9.80;70.96;100643.69;4959861;28;45461;-88
2022/09/30 02:38:45;;;;;;;;;14.25;11.50;;;;;9.80;71.02;100640.25;5040350;28;45282;-87
2022/09/30 02:41:22;;;;;;;;;17.75;13.75;;;;;9.79;70.95;100643.75;5058082;28;46423;-88
2022/09/30 02:43:48;;;;;;;;;14.50;13.00;;;;;9.78;71.03;100642.88;5040093;28;45761;-88
2022/09/30 02:46:21;;;;;;;;;15.50;12.25;;;;;9.80;70.91;100655.84;5058182;28;45238;-87
2022/09/30 02:48:46;;;;;;;;;14.50;14.00;;;;;9.78;71.01;100657.66;5058117;28;45316;-87
2022/09/30 02:51:28;;;;;;;;;16.00;14.75;;;;;9.75;70.81;100655.13;5057537;28;46148;-86
2022/09/30 02:54:04;;;;;;;;;19.50;13.50;;;;;9.72;70.61;100661.25;5039887;28;45336;-86
2022/09/30 02:56:57;;;;;;;;;18.75;14.50;;;;;9.68;70.90;100660.50;5039936;28;45475;-87
2022/09/30 02:59:24;;;;;;;;;14.75;9.75;;;;;9.66;70.71;100669.22;5036667;28;45446;-86
2022/09/30 03:01:50;;;;;;;;;13.75;13.75;;;;;9.64;70.86;100666.66;5053038;28;49685;-87
2022/09/30 03:04:20;;;;;;;;;14.00;11.25;;;;;9.62;71.18;100671.06;5059523;27;45356;-86
2022/09/30 03:06:46;;;;;;;;;15.25;11.00;;;;;9.59;71.23;100670.28;5060006;28;45333;-86
2022/09/30 03:09:11;;;;;;;;;18.00;11.00;;;;;9.56;70.87;100683.34;5043036;28;45374;-86
2022/09/30 03:11:37;;;;;;;;;17.50;11.50;;;;;9.55;71.47;100685.09;5077229;27;64105;-86
2022/09/30 03:14:35;;;;;;;;;16.25;13.00;;;;;9.51;71.03;100683.47;5059779;28;45253;-86
2022/09/30 03:17:32;;;;;;;;;14.75;14.00;;;;;9.50;71.50;100687.78;5060052;28;45339;-86
2022/09/30 03:20:00;;;;;;;;;14.00;10.75;;;;;9.50;71.39;100697.34;4974862;28;45576;-86
2022/09/30 03:22:39;;;;;;;;;25.00;14.25;;;;;9.49;71.62;100693.06;4975753;28;46549;-86
2022/09/30 03:25:16;;;;;;;;;18.75;14.75;;;;;9.48;71.34;100696.53;4975494;28;45402;-86
2022/09/30 03:27:50;;;;;;;;;17.25;15.00;;;;;9.47;71.36;100713.00;4959674;28;45473;-87
2022/09/30 03:30:18;;;;;;;;;14.00;13.25;;;;;9.48;71.71;100720.75;4959309;28;45319;-86
2022/09/30 03:33:08;;;;;;;;;21.00;16.00;;;;;9.50;71.52;100723.31;4975411;28;46483;-87
2022/09/30 03:35:49;;;;;;;;;16.75;11.00;;;;;9.47;71.29;100732.06;4975554;28;45465;-86
2022/09/30 03:38:42;;;;;;;;;14.00;13.25;;;;;9.48;71.53;100735.50;4975578;28;45514;-86
2022/09/30 03:41:12;;;;;;;;;13.25;9.50;;;;;9.51;71.40;100745.84;4975697;28;45509;-86
2022/09/30 03:43:44;;;;;;;;;18.50;14.00;;;;;9.53;71.63;100746.66;4975418;28;45571;-86
2022/09/30 03:46:47;;;;;;;;;16.50;10.50;;;;;9.49;71.51;100751.06;4975352;28;45535;-86
2022/09/30 03:49:22;;;;;;;;;15.50;13.00;;;;;9.47;71.18;100762.38;4955520;28;45347;-86
2022/09/30 03:51:47;;;;;;;;;20.00;14.50;;;;;9.44;71.17;100758.09;4939797;28;45281;-86
2022/09/30 03:54:14;;;;;;;;;16.00;13.50;;;;;9.41;71.33;100759.91;4938450;28;75415;-86
2022/09/30 03:56:42;;;;;;;;;15.25;13.25;;;;;9.37;71.88;100766.09;4958199;28;46065;-86
2022/09/30 03:59:14;;;;;;;;;15.50;13.00;;;;;9.32;72.20;100776.56;4998736;28;45398;-86
2022/09/30 04:01:40;;;;;;;;;21.25;14.25;;;;;9.28;72.50;100783.56;5017637;28;45530;-86
2022/09/30 04:04:26;;;;;;;;;13.50;12.25;;;;;9.25;72.66;100783.66;5016722;28;61921;-86
2022/09/30 04:06:51;;;;;;;;;15.25;13.50;;;;;9.23;72.46;100793.25;5020065;28;45942;-86
2022/09/30 04:09:16;;;;;;;;;17.00;14.75;;;;;9.25;72.79;100801.00;5033855;28;61172;-86
2022/09/30 04:11:41;;;;;;;;;17.50;14.75;;;;;9.24;73.01;100807.06;5001236;28;45399;-86
2022/09/30 04:14:07;;;;;;;;;15.00;10.50;;;;;9.20;72.91;100803.69;5017065;28;55207;-86
2022/09/30 04:16:33;;;;;;;;;11.25;10.75;;;;;9.17;73.54;100806.34;5017328;28;45487;-86
2022/09/30 04:18:58;;;;;;;;;15.75;13.25;;;;;9.14;73.25;100809.03;5034308;28;45621;-86
2022/09/30 04:21:24;;;;;;;;;13.25;11.50;;;;;9.13;73.18;100809.06;5034205;28;45572;-86
2022/09/30 04:23:50;;;;;;;;;14.00;12.25;;;;;9.10;73.46;100816.03;5067229;28;46313;-86
2022/09/30 04:26:18;;;;;;;;;14.00;12.50;;;;;9.10;73.44;100817.75;5076170;28;54264;-86
2022/09/30 04:28:44;;;;;;;;;22.25;17.50;;;;;9.09;72.95;100824.69;5059140;28;45505;-86
2022/09/30 04:31:13;;;;;;;;;16.25;15.00;;;;;9.08;73.30;100830.78;5076397;28;45377;-86
2022/09/30 04:33:39;;;;;;;;;15.25;11.75;;;;;9.04;73.02;100828.28;5057735;28;46651;-86
2022/09/30 04:36:05;;;;;;;;;15.50;14.75;;;;;9.02;72.94;100820.50;5058288;28;45379;-86
2022/09/30 04:38:31;;;;;;;;;16.00;15.00;;;;;9.01;73.35;100823.16;5058524;28;45427;-86
2022/09/30 04:40:56;;;;;;;;;18.00;16.25;;;;;8.99;73.01;100822.31;5058559;28;45566;-86
2022/09/30 04:43:23;;;;;;;;;13.50;13.25;;;;;8.96;73.07;100830.19;5076424;28;46152;-86
2022/09/30 04:45:50;;;;;;;;;22.00;18.00;;;;;8.95;73.31;100831.06;5076109;28;45320;-86
2022/09/30 04:48:16;;;;;;;;;15.50;14.00;;;;;8.95;73.41;100834.50;5076701;28;45441;-86
2022/09/30 04:50:42;;;;;;;;;16.75;12.75;;;;;8.94;73.16;100834.56;5041512;28;45375;-86
2022/09/30 04:53:08;;;;;;;;;15.25;13.50;;;;;8.93;73.00;100835.44;5057857;28;47290;-86
2022/09/30 04:55:33;;;;;;;;;24.75;15.75;;;;;8.91;73.38;100828.56;5076189;27;45389;-86
2022/09/30 04:57:59;;;;;;;;;13.75;10.25;;;;;8.88;73.22;100831.19;5074306;28;64444;-86
2022/09/30 05:00:25;;;;;;;;;14.00;12.75;;;;;8.85;73.31;100833.84;5057726;28;45570;-86
2022/09/30 05:02:50;;;;;;;;;13.50;11.25;;;;;8.81;73.29;100834.78;5075375;28;67567;-86
2022/09/30 05:05:16;;;;;;;;;14.50;13.00;;;;;8.77;73.53;100835.75;5058009;28;45410;-86
2022/09/30 05:07:42;;;;;;;;;13.75;10.00;;;;;8.72;73.76;100842.75;5076265;28;45428;-86
2022/09/30 05:10:10;;;;;;;;;13.75;9.25;;;;;8.72;73.54;100842.75;5076206;28;45308;-86
2022/09/30 05:12:36;;;;;;;;;15.50;13.00;;;;;8.72;73.75;100842.75;5058097;28;46271;-86
2022/09/30 05:15:02;;;;;;;;;13.00;11.75;;;;;8.75;73.80;100841.84;5075738;28;45829;-86
2022/09/30 05:17:29;;;;;;;;;13.50;13.00;;;;;8.77;73.36;100845.28;5057848;28;45447;-86
2022/09/30 05:19:54;;;;;;;;;17.75;13.75;;;;;8.80;73.18;100846.06;5076135;28;45445;-86
2022/09/30 05:22:19;;;;;;;;;13.25;10.25;;;;;8.81;73.55;100846.94;5039871;28;76938;-86
2022/09/30 05:24:45;;;;;;;;;15.75;13.00;;;;;8.77;73.63;100858.25;5057679;28;45285;-86
2022/09/30 05:27:10;;;;;;;;;21.25;13.75;;;;;8.76;73.37;100856.53;5075462;28;54883;-86
2022/09/30 05:29:35;;;;;;;;;14.25;14.00;;;;;8.71;74.05;100854.91;5040626;28;45352;-86
2022/09/30 05:32:01;;;;;;;;;13.25;13.00;;;;;8.69;73.96;100854.06;5075739;28;46268;-86
2022/09/30 05:34:26;;;;;;;;;16.50;14.00;;;;;8.70;73.44;100860.94;5057363;28;51880;-86
2022/09/30 05:36:52;;;;;;;;;15.25;13.00;;;;;8.73;73.91;100849.69;5057658;28;45278;-86
2022/09/30 05:39:17;;;;;;;;;13.25;11.75;;;;;8.76;73.37;100859.13;5057624;28;45629;-86
2022/09/30 05:41:42;;;;;;;;;14.00;14.00;;;;;8.77;73.22;100858.25;5075097;27;62486;-87
2022/09/30 05:44:08;;;;;;;;;16.00;13.50;;;;;8.79;73.60;100866.88;5077200;27;45334;-89
2022/09/30 05:46:34;;;;;;;;;12.50;11.25;;;;;8.78;73.29;100858.22;5061377;28;45364;-87
2022/09/30 05:48:59;;;;;;;;;18.25;11.50;;;;;8.79;73.32;100851.31;5061244;28;45559;-88
2022/09/30 05:51:25;;;;;;;;;16.50;13.75;;;;;8.80;73.61;100853.84;5079329;27;46414;-89
2022/09/30 05:53:50;;;;;;;;;19.50;14.50;;;;;8.82;73.37;100856.41;5043907;28;59227;-90
2022/09/30 05:56:16;;;;;;;;;15.00;14.50;;;;;8.81;73.52;100854.72;5044732;28;45329;-88
2022/09/30 05:58:49;;;;;;;;;16.00;11.50;;;;;8.83;73.38;100856.38;5075052;28;45644;-91
2022/09/30 06:01:15;;;;;;;;;16.75;13.75;;;;;8.90;73.11;100860.56;5060822;28;47207;-88
2022/09/30 06:03:42;;;;;;;;;14.50;10.75;;;;;8.94;73.03;100874.34;5044525;28;45515;-87
2022/09/30 06:06:07;;;;;;;;;16.75;14.00;;;;;8.96;72.72;100880.38;5061364;27;45281;-88
2022/09/30 06:08:33;;;;;;;;;15.75;13.25;;;;;8.95;72.73;100886.44;5061114;28;45292;-88
2022/09/30 06:10:58;;;;;;;;;16.25;14.75;;;;;8.96;72.94;100888.16;5079071;27;46558;-88
2022/09/30 06:13:24;;;;;;;;;18.25;11.50;;;;;8.96;73.11;100893.34;5043621;28;45470;-87
2022/09/30 06:15:57;;;;;;;;;12.75;11.75;;;;;8.99;72.86;100895.00;5061036;28;45262;-88
2022/09/30 06:18:24;;;;;;;;;17.75;15.75;;;;;9.02;73.21;100902.75;5079161;27;45405;-88
2022/09/30 06:20:50;;;;;;;;;17.00;14.00;;;;;9.03;72.73;100907.91;5078710;27;46291;-88
2022/09/30 06:23:16;;;;;;;;;18.50;13.50;;;;;9.04;72.95;100909.63;5043946;28;45396;-88
2022/09/30 06:25:42;;;;;;;;;17.25;15.25;;;;;9.05;73.08;100911.34;5060259;28;50155;-88
2022/09/30 06:28:08;;;;;;;;;19.50;14.00;;;;;9.07;73.14;100917.34;5078387;27;45426;-88
2022/09/30 06:30:33;;;;;;;;;16.50;10.50;;;;;9.08;72.61;100920.78;5043689;28;47913;-88
2022/09/30 06:33:00;;;;;;;;;17.75;13.50;;;;;9.08;72.63;100910.41;5040154;28;45353;-88
2022/09/30 06:35:26;;;;;;;;;22.25;16.75;;;;;9.10;72.35;100914.72;5040583;28;45282;-88
2022/09/30 06:37:52;;;;;;;;;18.00;15.25;;;;;9.11;72.96;100919.00;5058234;28;45392;-88
2022/09/30 06:40:20;;;;;;;;;20.75;16.00;;;;;9.13;72.64;100923.31;5057530;28;45319;-88
2022/09/30 06:42:46;;;;;;;;;15.00;14.00;;;;;9.18;73.06;100924.94;5057749;28;45263;-87
2022/09/30 06:45:12;;;;;;;;;22.25;15.75;;;;;9.25;72.62;100928.28;5040249;28;45393;-88
2022/09/30 06:47:37;;;;;;;;;22.75;17.75;;;;;9.26;73.27;100938.59;5040200;28;45373;-87
2022/09/30 06:50:03;;;;;;;;;18.25;15.00;;;;;9.25;73.31;100931.72;5057888;28;45988;-88
2022/09/30 06:52:29;;;;;;;;;25.50;20.50;;;;;9.28;73.08;100935.97;5058034;28;45361;-88
2022/09/30 06:54:55;;;;;;;;;20.50;16.25;;;;;9.31;72.90;100938.53;5039080;28;46889;-87
2022/09/30 06:57:23;;;;;;;;;23.25;16.50;;;;;9.34;73.12;100941.03;5039718;28;45385;-87
2022/09/30 06:59:49;;;;;;;;;16.50;14.00;;;;;9.36;73.41;100936.69;5056858;28;45482;-88
2022/09/30 07:02:15;;;;;;;;;21.25;16.50;;;;;9.38;73.45;100932.31;5056658;27;45806;-88
2022/09/30 07:04:41;;;;;;;;;22.00;17.00;;;;;9.42;72.93;100935.72;5059991;28;45355;-88
2022/09/30 07:07:06;;;;;;;;;19.00;17.50;;;;;9.46;73.00;100924.38;5060207;28;45546;-88
2022/09/30 07:09:32;;;;;;;;;25.75;16.25;;;;;9.51;73.16;100922.53;5059630;28;49376;-88
2022/09/30 07:11:57;;;;;;;;;27.25;20.25;;;;;9.55;72.93;100918.13;5059311;28;51814;-88
2022/09/30 07:14:22;;;;;;;;;24.25;17.75;;;;;9.60;72.95;100919.72;5059985;28;45617;-88
2022/09/30 07:16:51;;;;;;;;;21.75;18.00;;;;;9.66;72.90;100921.34;5077950;27;45296;-88
2022/09/30 07:19:19;;;;;;;;;16.25;14.25;;;;;9.73;72.44;100917.69;5077929;28;46999;-88
2022/09/30 07:21:44;;;;;;;;;22.75;20.50;;;;;9.78;72.56;100923.66;5077793;27;45270;-88
2022/09/30 07:24:10;;;;;;;;;23.50;22.00;;;;;9.83;72.38;100931.34;5059798;28;45363;-88
2022/09/30 07:26:35;;;;;;;;;20.00;18.25;;;;;9.86;72.73;100939.94;5059460;28;45394;-87
2022/09/30 07:29:01;;;;;;;;;22.25;19.75;;;;;9.86;73.15;100936.47;5077772;27;46438;-88
2022/09/30 07:31:27;;;;;;;;;27.00;22.50;;;;;9.87;72.90;100938.19;5059584;27;45281;-88
2022/09/30 07:33:54;;;;;;;;;27.00;18.50;;;;;9.90;72.57;100935.53;5059602;28;45415;-87
2022/09/30 07:36:25;;;;;;;;;25.50;18.25;;;;;9.97;72.64;100933.63;5059986;28;45600;-88
2022/09/30 07:38:51;;;;;;;;;27.00;19.75;;;;;10.02;72.80;100935.22;5060324;28;45642;-88
2022/09/30 07:41:24;;;;;;;;;24.25;19.75;;;;;10.09;72.69;100938.56;5077500;27;45322;-88
2022/09/30 07:43:50;;;;;;;;;23.00;21.50;;;;;10.17;72.44;100940.97;5077644;27;45391;-88
2022/09/30 07:46:23;;;;;;;;;26.25;17.00;;;;;10.19;72.15;100945.22;5059306;28;45432;-88
2022/09/30 07:48:50;;;;;;;;;26.75;22.75;;;;;10.25;72.44;100939.03;5059822;27;46222;-88
2022/09/30 07:51:22;;;;;;;;;22.50;17.00;;;;;10.27;72.26;100939.88;5076206;28;45433;-88
2022/09/30 07:53:50;;;;;;;;;23.75;23.00;;;;;10.32;72.48;100944.97;5076237;27;45482;-87
2022/09/30 07:56:16;;;;;;;;;29.75;23.25;;;;;10.34;72.25;100943.19;5076926;27;45495;-87
2022/09/30 07:58:42;;;;;;;;;24.25;17.50;;;;;10.36;72.38;100946.59;5075891;27;46063;-88
2022/09/30 08:01:08;;;;;;;;;21.25;18.50;;;;;10.43;71.81;100951.63;5077091;27;45327;-90
2022/09/30 08:03:37;;;;;;;;;26.75;23.75;;;;;10.52;72.19;100952.28;5059087;28;45269;-87
2022/09/30 08:06:17;;;;;;;;;23.00;19.00;;;;;10.59;72.48;100948.66;5076807;28;45450;-87
2022/09/30 08:08:43;;;;;;;;;28.75;19.75;;;;;10.65;71.87;100948.47;5058346;28;45454;-86
2022/09/30 08:11:10;;;;;;;;;22.00;18.25;;;;;10.73;72.08;100949.13;5058871;28;45743;-84
2022/09/30 08:13:35;;;;;;;;;21.25;19.75;;;;;10.80;71.39;100949.81;5059012;28;45380;-86
2022/09/30 08:16:01;;;;;;;;;22.50;17.75;;;;;10.87;71.30;100958.34;5041678;27;45520;-84
2022/09/30 08:18:28;;;;;;;;;26.50;19.50;;;;;10.93;71.16;100955.56;5058796;28;45535;-84
2022/09/30 08:20:53;;;;;;;;;23.50;20.50;;;;;11.00;71.14;100954.50;5058791;28;45474;-81
2022/09/30 08:23:19;;;;;;;;;27.50;19.75;;;;;11.07;71.30;100957.78;5076443;27;45457;-85
2022/09/30 08:25:44;;;;;;;;;25.50;18.25;;;;;11.14;70.81;100949.75;5076086;28;62316;-84
2022/09/30 08:28:09;;;;;;;;;26.00;19.75;;;;;11.20;71.06;100949.59;5041558;28;45973;-83
2022/09/30 08:30:36;;;;;;;;;26.00;21.25;;;;;11.29;70.85;100951.09;5076015;28;63384;-83
2022/09/30 08:33:01;;;;;;;;;24.00;17.00;;;;;11.37;70.01;100949.13;5076801;28;46550;-82
2022/09/30 08:35:27;;;;;;;;;24.75;20.50;;;;;11.45;69.82;100950.66;5075723;28;64672;-82
2022/09/30 08:37:53;;;;;;;;;27.50;19.75;;;;;11.52;70.50;100954.78;5076194;27;46733;-82
2022/09/30 08:40:22;;;;;;;;;21.75;20.00;;;;;11.58;70.01;100954.59;5076560;28;45818;-83
2022/09/30 08:42:59;;;;;;;;;22.50;19.75;;;;;11.65;69.85;100953.53;5075438;28;45371;-81
2022/09/30 08:45:29;;;;;;;;;20.00;16.50;;;;;11.72;69.94;100947.22;5058386;28;45545;-82
2022/09/30 08:48:06;;;;;;;;;24.00;20.00;;;;;11.79;69.76;100948.75;5058242;28;47275;-82
2022/09/30 08:50:56;;;;;;;;;22.75;20.25;;;;;11.85;68.96;100947.72;5076405;28;45822;-81
2022/09/30 08:53:29;;;;;;;;;22.50;20.00;;;;;11.93;68.71;100950.09;5076074;28;45348;-82
2022/09/30 08:55:56;;;;;;;;;19.75;18.00;;;;;12.01;68.79;100951.56;5058485;28;45375;-81
2022/09/30 08:58:53;;;;;;;;;23.50;20.50;;;;;12.11;69.03;100954.75;5058172;28;47168;-82
2022/09/30 09:01:33;;;;;;;;;25.00;22.25;;;;;12.19;68.36;100957.09;5041632;28;45293;-82
2022/09/30 09:04:00;;;;;;;;;24.50;21.75;;;;;12.28;68.31;100955.97;5058343;28;46008;-82
2022/09/30 09:06:36;;;;;;;;;21.00;20.00;;;;;12.36;68.06;100954.78;5057770;28;45522;-81
2022/09/30 09:09:09;;;;;;;;;28.50;22.50;;;;;12.48;68.17;100960.50;5076042;28;46472;-82
2022/09/30 09:11:46;;;;;;;;;26.75;22.50;;;;;12.58;67.69;100961.91;5057907;28;45874;-82
2022/09/30 09:14:33;;;;;;;;;28.75;23.00;;;;;12.68;67.22;100965.06;5058003;27;45375;-82
2022/09/30 09:17:08;;;;;;;;;27.00;21.50;;;;;12.78;66.83;100971.69;5076114;27;45296;-82
2022/09/30 09:19:42;;;;;;;;;22.75;21.25;;;;;12.86;66.79;100972.28;5075132;28;47472;-82
2022/09/30 09:22:08;;;;;;;;;25.25;21.50;;;;;12.93;66.17;100967.69;5057338;28;45356;-81
2022/09/30 09:24:37;;;;;;;;;25.25;20.25;;;;;13.02;66.89;100967.38;5057290;28;56576;-82
2022/09/30 09:27:15;;;;;;;;;33.00;25.25;;;;;13.14;66.23;100966.91;5075977;27;45503;-82
2022/09/30 09:29:56;;;;;;;;;30.75;24.00;;;;;13.26;65.99;100963.03;5057673;28;46276;-82
2022/09/30 09:32:24;;;;;;;;;23.50;22.50;;;;;13.36;65.90;100969.63;5040964;28;45859;-82
2022/09/30 09:34:54;;;;;;;;;26.00;21.00;;;;;13.44;65.19;100968.50;5057581;28;45405;-82
2022/09/30 09:38:23;;;;;;;;;26.50;18.75;;;;;13.55;63.78;100980.25;5075503;28;45286;-82
2022/09/30 09:40:41;;;;;;;;;18.00;15.50;;;;;13.68;64.55;100975.41;5075510;28;46022;-82
2022/09/30 09:43:25;;;;;;;;;31.00;24.25;;;;;13.79;64.80;100980.25;5075559;28;45445;-82
2022/09/30 09:46:02;;;;;;;;;25.50;20.25;;;;;13.89;64.11;100975.50;5057649;28;45393;-82
2022/09/30 09:48:29;;;;;;;;;20.75;18.75;;;;;13.98;64.30;100976.91;5057647;28;45403;-82
2022/09/30 09:51:00;;;;;;;;;22.25;18.50;;;;;14.06;63.93;100977.47;5057326;28;46651;-82
2022/09/30 09:53:46;;;;;;;;;23.25;19.50;;;;;14.16;63.06;100977.97;5075594;28;45895;-82
2022/09/30 09:56:22;;;;;;;;;14.25;14.00;;;;;14.24;62.34;100978.50;5057446;28;45445;-82
2022/09/30 09:59:04;;;;;;;;;20.50;17.75;;;;;14.31;61.73;100979.97;5074374;28;45329;-82
2022/09/30 10:01:33;;;;;;;;;22.75;15.75;;;;;14.40;63.20;100978.75;5075297;28;45631;-82
2022/09/30 10:04:10;;;;;;;;;13.75;11.00;;;;;14.49;61.77;100967.88;5066265;28;46171;-83
2022/09/30 10:06:45;;;;;;;;;25.75;16.00;;;;;14.58;61.32;100970.16;5062172;28;45484;-83
2022/09/30 10:09:37;;;;;;;;;17.25;14.75;;;;;14.68;60.30;100974.06;5064873;28;45697;-82
2022/09/30 10:12:06;;;;;;;;;9.00;9.00;;;;;14.81;60.45;100976.19;5033047;28;46122;-83
2022/09/30 10:14:33;;;;;;;;;15.50;12.25;;;;;14.93;60.58;100983.50;5075202;27;45404;-85
2022/09/30 10:16:59;;;;;;;;;12.25;8.50;;;;;15.00;59.96;100979.69;5057286;28;45509;-82
2022/09/30 10:19:27;;;;;;;;;15.25;12.00;;;;;15.09;58.91;100970.59;5056671;28;45374;-84
2022/09/30 10:22:08;;;;;;;;;19.00;15.00;;;;;15.21;59.98;100971.81;5056396;28;45593;-83
2022/09/30 10:24:35;;;;;;;;;18.50;15.00;;;;;15.32;59.25;100968.72;5074798;28;45731;-85
2022/09/30 10:27:01;;;;;;;;;9.50;8.75;;;;;15.42;59.10;100970.00;5075394;28;45440;-86
2022/09/30 10:29:30;;;;;;;;;18.75;13.25;;;;;15.51;57.29;100971.34;5056460;28;45420;-84
2022/09/30 10:31:57;;;;;;;;;15.50;12.75;;;;;15.61;57.99;100972.63;5077770;27;46397;-83
2022/09/30 10:34:32;;;;;;;;;15.50;10.25;;;;;15.72;57.32;100964.28;5056311;28;45986;-86
2022/09/30 10:37:00;;;;;;;;;14.00;13.00;;;;;15.82;57.13;100963.81;5040188;28;45502;-85
2022/09/30 10:39:29;;;;;;;;;10.25;6.75;;;;;15.94;57.43;100966.78;5057096;28;45385;-84
2022/09/30 10:42:08;;;;;;;;;12.00;12.00;;;;;16.00;57.66;100975.19;5040093;28;46700;-86
2022/09/30 10:44:45;;;;;;;;;15.00;12.00;;;;;16.13;56.13;100969.34;5040096;28;45345;-85
2022/09/30 10:47:18;;;;;;;;;11.75;7.00;;;;;16.30;56.24;100969.38;5056857;28;45400;-85
2022/09/30 10:49:55;;;;;;;;;9.50;9.00;;;;;16.47;55.24;100967.69;5056463;28;45520;-85
2022/09/30 10:52:26;;;;;;;;;13.00;10.25;;;;;16.62;54.48;100964.28;5071008;28;45484;-82
2022/09/30 10:55:06;;;;;;;;;9.25;6.50;;;;;16.72;53.60;100967.31;5077152;27;45829;-88
2022/09/30 10:57:34;;;;;;;;;8.75;5.50;;;;;16.84;52.55;100961.44;5077964;27;45408;-83
2022/09/30 11:00:09;;;;;;;;;5.50;5.25;;;;;17.01;52.38;100948.28;5076700;28;45421;-83
2022/09/30 11:02:41;;;;;;;;;5.50;5.50;;;;;17.17;51.04;100958.81;5077188;27;46257;-84
2022/09/30 11:05:18;;;;;;;;;6.00;4.00;;;;;17.33;49.80;100963.28;5062598;27;45745;-88
2022/09/30 11:08:00;;;;;;;;;4.25;4.00;;;;;17.53;50.25;100970.97;5056458;28;45485;-84
2022/09/30 11:10:39;;;;;;;;;5.25;5.25;;;;;17.80;50.21;100960.69;5057121;28;45535;-84
2022/09/30 11:13:28;;;;;;;;;8.00;6.50;;;;;18.12;49.04;100968.56;5059674;28;48499;-84
2022/09/30 11:16:30;;;;;;;;;7.25;6.00;;;;;18.69;48.11;100967.94;5077106;27;45766;-84
2022/09/30 11:19:03;;;;;;;;;4.50;4.50;;;;;21.39;48.19;100969.91;5077324;28;45418;-84
2022/09/30 11:21:34;;;;;;;;;4.00;4.00;;;;;24.28;40.80;100960.22;5065251;28;45363;-87
2022/09/30 11:24:25;;;;;;;;;6.00;5.00;;;;;26.62;38.89;100968.22;5059620;28;46713;-85
2022/09/30 11:27:27;;;;;;;;;5.50;5.50;;;;;28.59;32.93;100970.50;5064224;28;45453;-84
2022/09/30 11:30:02;;;;;;;;;4.25;4.00;;;;;30.36;31.57;100969.84;5072887;28;45393;-84
2022/09/30 11:32:45;;;;;;;;;6.00;5.00;;;;;31.46;28.04;100967.38;5076654;28;45499;-84